ETR352 SVMI-SVMG
Flight info
| Callsign | ETR352 |
|---|---|
| Flight time | 0h 52m |
| Altitude | 23000 |
| Route | OSMAR2 OSMAR W19 DOSRA UW19 CHALO EKONU |
| Aircraft | B736/M-SDE2E3FGHIRWXY/LB1 |
Departure
| Time | 2026-04-28 01:15 |
|---|---|
| Airport | Maiquetía Simón Bolívar International Airport (SVMI) |
Arrival
| Time | 2026-04-28 02:08 |
|---|---|
| Airport | Del Caribe Santiago Mariño International Airport (SVMG) |
| Time | Latitude | Longitude | Altitude | Speed | Heading |
|---|---|---|---|---|---|
| 2026-04-28 00:43 | 10.59831 | -67.00011 | 219 ft | 0 kts | 178° |
| 2026-04-28 01:06 | 10.59842 | -67.00012 | 236 ft | 2 kts | 178° |
| 2026-04-28 01:06 | 10.59858 | -67.00012 | 215 ft | 2 kts | 181° |
| 2026-04-28 01:07 | 10.59875 | -67.00011 | 216 ft | 2 kts | 185° |
| 2026-04-28 01:07 | 10.59891 | -67.00009 | 221 ft | 2 kts | 194° |
| 2026-04-28 01:07 | 10.59906 | -67.00002 | 219 ft | 2 kts | 228° |
| 2026-04-28 01:07 | 10.59912 | -66.99989 | 219 ft | 1 kts | 265° |
| 2026-04-28 01:08 | 10.59912 | -66.99987 | 219 ft | 0 kts | 267° |
| 2026-04-28 01:10 | 10.59912 | -66.99988 | 219 ft | 1 kts | 267° |
| 2026-04-28 01:10 | 10.59911 | -67.00024 | 220 ft | 8 kts | 268° |
| 2026-04-28 01:11 | 10.59909 | -67.00088 | 220 ft | 11 kts | 268° |
| 2026-04-28 01:11 | 10.59906 | -67.00174 | 222 ft | 14 kts | 268° |
| 2026-04-28 01:11 | 10.59925 | -67.00279 | 225 ft | 16 kts | 281° |
| 2026-04-28 01:11 | 10.59922 | -67.00413 | 226 ft | 21 kts | 268° |
| 2026-04-28 01:12 | 10.59916 | -67.00571 | 228 ft | 23 kts | 268° |
| 2026-04-28 01:12 | 10.59913 | -67.00736 | 231 ft | 23 kts | 268° |
| 2026-04-28 01:12 | 10.59907 | -67.00895 | 234 ft | 22 kts | 268° |
| 2026-04-28 01:12 | 10.59902 | -67.01048 | 237 ft | 22 kts | 268° |
| 2026-04-28 01:13 | 10.59898 | -67.01189 | 239 ft | 16 kts | 272° |
| 2026-04-28 01:13 | 10.60128 | -67.01245 | 239 ft | 21 kts | 358° |
| 2026-04-28 01:13 | 10.60278 | -67.01249 | 238 ft | 13 kts | 359° |
| 2026-04-28 01:14 | 10.60371 | -67.01247 | 240 ft | 12 kts | 27° |
| 2026-04-28 01:14 | 10.60381 | -67.01199 | 239 ft | 0 kts | 86° |
| 2026-04-28 01:14 | 10.60381 | -67.01198 | 239 ft | 0 kts | 86° |
| 2026-04-28 01:15 | 10.60386 | -67.01080 | 236 ft | 54 kts | 88° |
| 2026-04-28 01:15 | 10.60407 | -67.00415 | 225 ft | 132 kts | 88° |
| 2026-04-28 01:15 | 10.60439 | -66.99304 | 470 ft | 170 kts | 88° |
| 2026-04-28 01:15 | 10.60479 | -66.98162 | 1544 ft | 157 kts | 89° |
| 2026-04-28 01:16 | 10.60667 | -66.97064 | 2311 ft | 165 kts | 72° |
| 2026-04-28 01:16 | 10.61098 | -66.95869 | 2708 ft | 195 kts | 72° |
| 2026-04-28 01:16 | 10.61532 | -66.94492 | 3152 ft | 218 kts | 74° |
| 2026-04-28 01:16 | 10.62005 | -66.92911 | 3405 ft | 249 kts | 75° |
| 2026-04-28 01:17 | 10.62523 | -66.91178 | 3900 ft | 255 kts | 75° |
| 2026-04-28 01:17 | 10.63051 | -66.89424 | 3957 ft | 265 kts | 75° |
| 2026-04-28 01:17 | 10.63588 | -66.87640 | 3980 ft | 268 kts | 75° |
| 2026-04-28 01:17 | 10.64136 | -66.85825 | 4352 ft | 271 kts | 75° |
| 2026-04-28 01:18 | 10.64690 | -66.83991 | 5390 ft | 268 kts | 76° |
| 2026-04-28 01:18 | 10.65231 | -66.82206 | 6581 ft | 265 kts | 76° |
| 2026-04-28 01:18 | 10.65778 | -66.80396 | 7463 ft | 270 kts | 76° |
| 2026-04-28 01:18 | 10.66335 | -66.78553 | 8363 ft | 274 kts | 76° |
| 2026-04-28 01:19 | 10.66900 | -66.76684 | 9278 ft | 279 kts | 76° |
| 2026-04-28 01:19 | 10.67476 | -66.74776 | 10165 ft | 284 kts | 76° |
| 2026-04-28 01:19 | 10.68071 | -66.72802 | 10676 ft | 303 kts | 76° |
| 2026-04-28 01:19 | 10.68708 | -66.70687 | 11168 ft | 319 kts | 76° |
| 2026-04-28 01:20 | 10.69368 | -66.68488 | 11802 ft | 330 kts | 75° |
| 2026-04-28 01:20 | 10.70049 | -66.66235 | 12529 ft | 337 kts | 75° |
| 2026-04-28 01:20 | 10.70745 | -66.63944 | 13357 ft | 341 kts | 75° |
| 2026-04-28 01:20 | 10.71451 | -66.61616 | 14124 ft | 347 kts | 75° |
| 2026-04-28 01:21 | 10.72159 | -66.59275 | 14789 ft | 353 kts | 75° |
| 2026-04-28 01:21 | 10.72882 | -66.56880 | 15547 ft | 357 kts | 75° |
| 2026-04-28 01:21 | 10.73606 | -66.54436 | 16248 ft | 363 kts | 76° |
| 2026-04-28 01:21 | 10.74311 | -66.51952 | 16928 ft | 369 kts | 76° |
| 2026-04-28 01:22 | 10.75019 | -66.49423 | 17641 ft | 374 kts | 76° |
| 2026-04-28 01:22 | 10.75736 | -66.46860 | 18353 ft | 378 kts | 75° |
| 2026-04-28 01:22 | 10.76458 | -66.44292 | 19102 ft | 377 kts | 76° |
| 2026-04-28 01:22 | 10.77176 | -66.41744 | 19984 ft | 373 kts | 76° |
| 2026-04-28 01:23 | 10.77891 | -66.39209 | 20817 ft | 372 kts | 76° |
| 2026-04-28 01:23 | 10.78596 | -66.36713 | 21603 ft | 372 kts | 76° |
| 2026-04-28 01:23 | 10.79311 | -66.34179 | 22394 ft | 373 kts | 76° |
| 2026-04-28 01:23 | 10.80025 | -66.31645 | 22808 ft | 371 kts | 76° |
| 2026-04-28 01:24 | 10.80739 | -66.29113 | 23002 ft | 374 kts | 76° |
| 2026-04-28 01:24 | 10.81459 | -66.26563 | 22993 ft | 373 kts | 76° |
| 2026-04-28 01:24 | 10.82176 | -66.24022 | 23001 ft | 372 kts | 76° |
| 2026-04-28 01:24 | 10.82889 | -66.21496 | 23002 ft | 372 kts | 76° |
| 2026-04-28 01:25 | 10.83600 | -66.18970 | 22995 ft | 371 kts | 76° |
| 2026-04-28 01:25 | 10.84311 | -66.16444 | 22999 ft | 371 kts | 76° |
| 2026-04-28 01:25 | 10.85023 | -66.13917 | 23000 ft | 371 kts | 76° |
| 2026-04-28 01:25 | 10.85725 | -66.11424 | 22992 ft | 371 kts | 76° |
| 2026-04-28 01:26 | 10.86437 | -66.08893 | 22997 ft | 372 kts | 76° |
| 2026-04-28 01:26 | 10.87163 | -66.06304 | 23018 ft | 389 kts | 76° |
| 2026-04-28 01:26 | 10.87923 | -66.03594 | 23005 ft | 407 kts | 76° |
| 2026-04-28 01:26 | 10.88716 | -66.00771 | 23006 ft | 422 kts | 76° |
| 2026-04-28 01:27 | 10.89502 | -65.97855 | 22997 ft | 432 kts | 79° |
| 2026-04-28 01:27 | 10.89941 | -65.94819 | 22979 ft | 434 kts | 89° |
| 2026-04-28 01:27 | 10.90004 | -65.91750 | 22991 ft | 433 kts | 91° |
| 2026-04-28 01:27 | 10.90004 | -65.88687 | 22980 ft | 432 kts | 92° |
| 2026-04-28 01:28 | 10.89989 | -65.85630 | 22977 ft | 432 kts | 92° |
| 2026-04-28 01:28 | 10.89978 | -65.82574 | 22978 ft | 432 kts | 92° |
| 2026-04-28 01:28 | 10.89976 | -65.79561 | 22976 ft | 431 kts | 92° |
| 2026-04-28 01:28 | 10.89982 | -65.76503 | 22984 ft | 432 kts | 92° |
| 2026-04-28 01:29 | 10.89996 | -65.73440 | 22985 ft | 432 kts | 91° |
| 2026-04-28 01:29 | 10.90013 | -65.70388 | 22987 ft | 432 kts | 91° |
| 2026-04-28 01:29 | 10.90033 | -65.67323 | 22986 ft | 432 kts | 91° |
| 2026-04-28 01:29 | 10.90053 | -65.64264 | 22987 ft | 433 kts | 91° |
| 2026-04-28 01:30 | 10.90074 | -65.61201 | 22985 ft | 433 kts | 91° |
| 2026-04-28 01:30 | 10.90094 | -65.58163 | 22966 ft | 422 kts | 91° |
| 2026-04-28 01:30 | 10.90115 | -65.55244 | 22961 ft | 403 kts | 92° |
| 2026-04-28 01:30 | 10.90135 | -65.52453 | 22966 ft | 385 kts | 91° |
| 2026-04-28 01:31 | 10.90153 | -65.49781 | 22962 ft | 370 kts | 92° |
| 2026-04-28 01:31 | 10.90168 | -65.47200 | 22976 ft | 363 kts | 92° |
| 2026-04-28 01:31 | 10.90181 | -65.44620 | 22996 ft | 366 kts | 92° |
| 2026-04-28 01:31 | 10.90193 | -65.42022 | 22996 ft | 368 kts | 92° |
| 2026-04-28 01:32 | 10.90205 | -65.39449 | 22993 ft | 369 kts | 92° |
| 2026-04-28 01:32 | 10.90218 | -65.36833 | 22889 ft | 371 kts | 92° |
| 2026-04-28 01:32 | 10.90231 | -65.34203 | 22591 ft | 369 kts | 92° |
| 2026-04-28 01:32 | 10.90245 | -65.31589 | 22175 ft | 369 kts | 92° |
| 2026-04-28 01:33 | 10.90259 | -65.28992 | 21789 ft | 365 kts | 92° |
| 2026-04-28 01:33 | 10.90273 | -65.26416 | 21387 ft | 362 kts | 92° |
| 2026-04-28 01:33 | 10.90286 | -65.23860 | 20982 ft | 360 kts | 92° |
| 2026-04-28 01:33 | 10.90299 | -65.21322 | 20581 ft | 358 kts | 92° |
| 2026-04-28 01:34 | 10.90312 | -65.18794 | 20181 ft | 356 kts | 91° |
| 2026-04-28 01:34 | 10.90325 | -65.16285 | 19774 ft | 354 kts | 92° |
| 2026-04-28 01:34 | 10.90335 | -65.13784 | 19375 ft | 352 kts | 91° |
| 2026-04-28 01:34 | 10.90346 | -65.11288 | 18954 ft | 352 kts | 92° |
| 2026-04-28 01:35 | 10.90357 | -65.08833 | 18561 ft | 350 kts | 92° |
| 2026-04-28 01:35 | 10.90368 | -65.06350 | 18136 ft | 349 kts | 92° |
| 2026-04-28 01:35 | 10.90379 | -65.03886 | 17698 ft | 347 kts | 92° |
| 2026-04-28 01:35 | 10.90390 | -65.01439 | 17286 ft | 344 kts | 92° |
| 2026-04-28 01:36 | 10.90401 | -64.99010 | 16886 ft | 341 kts | 92° |
| 2026-04-28 01:36 | 10.90411 | -64.96606 | 16494 ft | 339 kts | 92° |
| 2026-04-28 01:36 | 10.90421 | -64.94216 | 16106 ft | 336 kts | 92° |
| 2026-04-28 01:36 | 10.90431 | -64.91875 | 15726 ft | 333 kts | 92° |
| 2026-04-28 01:37 | 10.90440 | -64.89527 | 15349 ft | 330 kts | 92° |
| 2026-04-28 01:37 | 10.90449 | -64.87199 | 14966 ft | 328 kts | 91° |
| 2026-04-28 01:37 | 10.90458 | -64.84884 | 14590 ft | 326 kts | 92° |
| 2026-04-28 01:37 | 10.90466 | -64.82578 | 14211 ft | 324 kts | 92° |
| 2026-04-28 01:38 | 10.90474 | -64.80297 | 13835 ft | 321 kts | 91° |
| 2026-04-28 01:38 | 10.90482 | -64.78029 | 13416 ft | 319 kts | 91° |
| 2026-04-28 01:38 | 10.90490 | -64.75801 | 13019 ft | 317 kts | 91° |
| 2026-04-28 01:38 | 10.90497 | -64.73566 | 12631 ft | 314 kts | 91° |
| 2026-04-28 01:39 | 10.90505 | -64.71355 | 12252 ft | 311 kts | 91° |
| 2026-04-28 01:39 | 10.90512 | -64.69166 | 11878 ft | 308 kts | 91° |
| 2026-04-28 01:39 | 10.90517 | -64.67718 | 11634 ft | 306 kts | 91° |
| 2026-04-28 01:39 | 10.90524 | -64.65554 | 11250 ft | 304 kts | 91° |
| 2026-04-28 01:40 | 10.90524 | -64.63407 | 10892 ft | 301 kts | 92° |
| 2026-04-28 01:40 | 10.90462 | -64.60607 | 10458 ft | 296 kts | 93° |
| 2026-04-28 01:40 | 10.90421 | -64.59196 | 10239 ft | 293 kts | 93° |
| 2026-04-28 01:40 | 10.90359 | -64.57136 | 9931 ft | 290 kts | 93° |
| 2026-04-28 01:41 | 10.90301 | -64.55162 | 9929 ft | 274 kts | 93° |
| 2026-04-28 01:41 | 10.90246 | -64.53232 | 9419 ft | 277 kts | 93° |
| 2026-04-28 01:41 | 10.90190 | -64.51293 | 9014 ft | 272 kts | 93° |
| 2026-04-28 01:41 | 10.90137 | -64.49393 | 8690 ft | 266 kts | 93° |
| 2026-04-28 01:42 | 10.90085 | -64.47520 | 8386 ft | 263 kts | 93° |
| 2026-04-28 01:42 | 10.90034 | -64.45661 | 8094 ft | 261 kts | 93° |
| 2026-04-28 01:42 | 10.89983 | -64.43823 | 7809 ft | 258 kts | 93° |
| 2026-04-28 01:42 | 10.89933 | -64.42006 | 7526 ft | 256 kts | 93° |
| 2026-04-28 01:43 | 10.89884 | -64.40201 | 7248 ft | 254 kts | 93° |
| 2026-04-28 01:43 | 10.89835 | -64.38432 | 6977 ft | 252 kts | 93° |
| 2026-04-28 01:43 | 10.89786 | -64.36657 | 6698 ft | 250 kts | 92° |
| 2026-04-28 01:43 | 10.89738 | -64.34896 | 6427 ft | 248 kts | 93° |
| 2026-04-28 01:44 | 10.89689 | -64.33146 | 6152 ft | 247 kts | 93° |
| 2026-04-28 01:44 | 10.89641 | -64.31404 | 5865 ft | 246 kts | 92° |
| 2026-04-28 01:44 | 10.89593 | -64.29670 | 5583 ft | 244 kts | 92° |
| 2026-04-28 01:44 | 10.89545 | -64.27950 | 5308 ft | 243 kts | 92° |
| 2026-04-28 01:45 | 10.89497 | -64.26235 | 5038 ft | 242 kts | 92° |
| 2026-04-28 01:45 | 10.89450 | -64.24528 | 4771 ft | 241 kts | 92° |
| 2026-04-28 01:45 | 10.89402 | -64.22825 | 4483 ft | 240 kts | 92° |
| 2026-04-28 01:45 | 10.89355 | -64.21129 | 4214 ft | 239 kts | 92° |
| 2026-04-28 01:46 | 10.89330 | -64.19443 | 3952 ft | 238 kts | 90° |
| 2026-04-28 01:46 | 10.89188 | -64.17774 | 3694 ft | 236 kts | 99° |
| 2026-04-28 01:46 | 10.88928 | -64.16126 | 3426 ft | 235 kts | 99° |
| 2026-04-28 01:46 | 10.88656 | -64.14514 | 3168 ft | 233 kts | 99° |
| 2026-04-28 01:47 | 10.88382 | -64.12877 | 2924 ft | 230 kts | 95° |
| 2026-04-28 01:47 | 10.88440 | -64.11311 | 2740 ft | 221 kts | 84° |
| 2026-04-28 01:47 | 10.88671 | -64.09809 | 2452 ft | 207 kts | 80° |
| 2026-04-28 01:47 | 10.88942 | -64.08433 | 2181 ft | 190 kts | 80° |
| 2026-04-28 01:48 | 10.89198 | -64.07153 | 1921 ft | 181 kts | 79° |
| 2026-04-28 01:48 | 10.89443 | -64.05914 | 1689 ft | 173 kts | 79° |
| 2026-04-28 01:48 | 10.89667 | -64.04785 | 1446 ft | 153 kts | 80° |
| 2026-04-28 01:48 | 10.89861 | -64.03799 | 1264 ft | 134 kts | 79° |
| 2026-04-28 01:49 | 10.90038 | -64.02904 | 1076 ft | 126 kts | 77° |
| 2026-04-28 01:49 | 10.90212 | -64.02035 | 918 ft | 125 kts | 79° |
| 2026-04-28 01:49 | 10.90381 | -64.01166 | 773 ft | 123 kts | 77° |
| 2026-04-28 01:49 | 10.90551 | -64.00313 | 561 ft | 119 kts | 79° |
| 2026-04-28 01:50 | 10.90689 | -63.99511 | 418 ft | 117 kts | 79° |
| 2026-04-28 01:50 | 10.90860 | -63.98665 | 241 ft | 124 kts | 78° |
| 2026-04-28 01:50 | 10.91033 | -63.97784 | 109 ft | 141 kts | 78° |
| 2026-04-28 01:50 | 10.91231 | -63.96730 | 634 ft | 158 kts | 78° |
| 2026-04-28 01:51 | 10.91406 | -63.95604 | 1665 ft | 153 kts | 80° |
| 2026-04-28 01:51 | 10.91656 | -63.94578 | 2820 ft | 152 kts | 79° |
| 2026-04-28 01:51 | 10.91925 | -63.93524 | 3790 ft | 155 kts | 78° |
| 2026-04-28 01:51 | 10.92202 | -63.92403 | 4581 ft | 179 kts | 79° |
| 2026-04-28 01:52 | 10.92530 | -63.91030 | 4933 ft | 222 kts | 78° |
| 2026-04-28 01:52 | 10.92932 | -63.89293 | 5118 ft | 281 kts | 78° |
| 2026-04-28 01:52 | 10.93377 | -63.87346 | 5017 ft | 276 kts | 78° |
| 2026-04-28 01:52 | 10.93744 | -63.85490 | 4963 ft | 260 kts | 89° |
| 2026-04-28 01:53 | 10.93401 | -63.83767 | 4956 ft | 244 kts | 117° |
| 2026-04-28 01:53 | 10.92316 | -63.82553 | 4951 ft | 234 kts | 146° |
| 2026-04-28 01:53 | 10.90791 | -63.82122 | 4961 ft | 228 kts | 178° |
| 2026-04-28 01:53 | 10.89309 | -63.82596 | 4943 ft | 225 kts | 211° |
| 2026-04-28 01:54 | 10.88237 | -63.83700 | 4962 ft | 214 kts | 226° |
| 2026-04-28 01:54 | 10.87313 | -63.84863 | 4962 ft | 209 kts | 227° |
| 2026-04-28 01:54 | 10.86410 | -63.86027 | 4954 ft | 210 kts | 228° |
| 2026-04-28 01:54 | 10.85522 | -63.87210 | 4988 ft | 210 kts | 228° |
| 2026-04-28 01:55 | 10.84639 | -63.88387 | 4981 ft | 209 kts | 229° |
| 2026-04-28 01:55 | 10.83763 | -63.89555 | 4986 ft | 207 kts | 228° |
| 2026-04-28 01:55 | 10.82897 | -63.90718 | 4975 ft | 206 kts | 229° |
| 2026-04-28 01:55 | 10.82017 | -63.91893 | 4980 ft | 210 kts | 229° |
| 2026-04-28 01:56 | 10.81137 | -63.93064 | 4971 ft | 212 kts | 228° |
| 2026-04-28 01:56 | 10.80835 | -63.93465 | 4962 ft | 212 kts | 228° |
| 2026-04-28 01:56 | 10.80173 | -63.94346 | 4962 ft | 211 kts | 228° |
| 2026-04-28 01:56 | 10.79284 | -63.95536 | 4968 ft | 211 kts | 228° |
| 2026-04-28 01:57 | 10.78397 | -63.96730 | 4960 ft | 212 kts | 229° |
| 2026-04-28 01:57 | 10.77505 | -63.97922 | 4960 ft | 211 kts | 229° |
| 2026-04-28 01:57 | 10.76639 | -63.99084 | 4934 ft | 199 kts | 228° |
| 2026-04-28 01:57 | 10.75841 | -64.00177 | 4945 ft | 189 kts | 229° |
| 2026-04-28 01:58 | 10.75062 | -64.01242 | 4960 ft | 188 kts | 228° |
| 2026-04-28 01:58 | 10.74279 | -64.02316 | 4975 ft | 190 kts | 229° |
| 2026-04-28 01:58 | 10.73487 | -64.03400 | 4978 ft | 191 kts | 228° |
| 2026-04-28 01:58 | 10.72721 | -64.04504 | 4978 ft | 191 kts | 234° |
| 2026-04-28 01:59 | 10.72181 | -64.05739 | 5054 ft | 189 kts | 250° |
| 2026-04-28 01:59 | 10.71956 | -64.07048 | 5077 ft | 198 kts | 267° |
| 2026-04-28 01:59 | 10.72142 | -64.08447 | 4855 ft | 200 kts | 288° |
| 2026-04-28 01:59 | 10.72698 | -64.09725 | 4659 ft | 196 kts | 303° |
| 2026-04-28 02:00 | 10.73552 | -64.10786 | 4401 ft | 192 kts | 318° |
| 2026-04-28 02:00 | 10.74529 | -64.11689 | 4192 ft | 187 kts | 326° |
| 2026-04-28 02:00 | 10.75588 | -64.12451 | 3956 ft | 186 kts | 333° |
| 2026-04-28 02:00 | 10.76726 | -64.13064 | 3719 ft | 184 kts | 342° |
| 2026-04-28 02:01 | 10.77900 | -64.13513 | 3553 ft | 177 kts | 349° |
| 2026-04-28 02:01 | 10.79062 | -64.13805 | 3468 ft | 169 kts | 357° |
| 2026-04-28 02:01 | 10.80232 | -64.14012 | 3444 ft | 178 kts | 354° |
| 2026-04-28 02:01 | 10.81459 | -64.14220 | 3417 ft | 177 kts | 1° |
| 2026-04-28 02:02 | 10.82689 | -64.14272 | 3260 ft | 177 kts | 8° |
| 2026-04-28 02:02 | 10.83897 | -64.14172 | 3020 ft | 169 kts | 15° |
| 2026-04-28 02:02 | 10.85017 | -64.13980 | 2877 ft | 160 kts | 20° |
| 2026-04-28 02:02 | 10.86076 | -64.13633 | 2660 ft | 160 kts | 31° |
| 2026-04-28 02:03 | 10.87040 | -64.13091 | 2530 ft | 155 kts | 42° |
| 2026-04-28 02:03 | 10.87844 | -64.12404 | 2425 ft | 149 kts | 50° |
| 2026-04-28 02:03 | 10.88516 | -64.11613 | 2248 ft | 148 kts | 61° |
| 2026-04-28 02:03 | 10.88919 | -64.10661 | 2091 ft | 146 kts | 77° |
| 2026-04-28 02:04 | 10.89129 | -64.09648 | 1963 ft | 146 kts | 83° |
| 2026-04-28 02:04 | 10.89203 | -64.08654 | 1877 ft | 142 kts | 90° |
| 2026-04-28 02:04 | 10.89186 | -64.07642 | 1740 ft | 142 kts | 88° |
| 2026-04-28 02:04 | 10.89257 | -64.06690 | 1733 ft | 127 kts | 83° |
| 2026-04-28 02:05 | 10.89397 | -64.05818 | 1542 ft | 125 kts | 81° |
| 2026-04-28 02:05 | 10.89551 | -64.04959 | 1443 ft | 120 kts | 81° |
| 2026-04-28 02:05 | 10.89732 | -64.04131 | 1297 ft | 122 kts | 78° |
| 2026-04-28 02:05 | 10.89887 | -64.03283 | 1169 ft | 123 kts | 78° |
| 2026-04-28 02:06 | 10.90064 | -64.02428 | 1026 ft | 122 kts | 76° |
| 2026-04-28 02:06 | 10.90253 | -64.01555 | 823 ft | 130 kts | 77° |
| 2026-04-28 02:06 | 10.90442 | -64.00677 | 663 ft | 123 kts | 77° |
| 2026-04-28 02:06 | 10.90620 | -63.99824 | 485 ft | 121 kts | 79° |
| 2026-04-28 02:07 | 10.90774 | -63.98992 | 302 ft | 121 kts | 78° |
| 2026-04-28 02:07 | 10.90959 | -63.98156 | 132 ft | 118 kts | 79° |
| 2026-04-28 02:07 | 10.91113 | -63.97393 | 70 ft | 98 kts | 78° |
| 2026-04-28 02:07 | 10.91227 | -63.96835 | 62 ft | 63 kts | 78° |
| 2026-04-28 02:08 | 10.91284 | -63.96557 | 54 ft | 32 kts | 78° |
| 2026-04-28 02:08 | 10.91325 | -63.96460 | 52 ft | 11 kts | 7° |
| 2026-04-28 02:08 | 10.91396 | -63.96472 | 57 ft | 10 kts | 348° |
| 2026-04-28 02:08 | 10.91465 | -63.96487 | 59 ft | 10 kts | 347° |
| 2026-04-28 02:09 | 10.91531 | -63.96504 | 57 ft | 10 kts | 345° |
| 2026-04-28 02:09 | 10.91574 | -63.96551 | 56 ft | 10 kts | 277° |
| 2026-04-28 02:09 | 10.91560 | -63.96628 | 57 ft | 13 kts | 257° |
| 2026-04-28 02:09 | 10.91540 | -63.96727 | 59 ft | 16 kts | 258° |
| 2026-04-28 02:10 | 10.91548 | -63.96784 | 58 ft | 6 kts | 339° |
| 2026-04-28 02:10 | 10.91598 | -63.96795 | 59 ft | 3 kts | 348° |
| 2026-04-28 02:10 | 10.91601 | -63.96796 | 59 ft | 0 kts | 348° |